Time;durP1;ratioP1;P1;durP2;ratioP2;P2;SDS_P1;SDS_P2;PMS_P1;PMS_P2;Temp;Humidity;BMP_temperature;BMP_pressure;BME280_temperature;BME280_humidity;BME280_pressure;Samples;Min_cycle;Max_cycle;Signal;HPM_P1;HPM_P2
2022/06/29 00:00:34;;;;;;;11.80;10.90;;;26.00;99.30;;;;;;6276240;28;20252;-65
2022/06/29 00:03:37;;;;;;;12.13;11.13;;;26.00;99.60;;;;;;6276060;28;20228;-65
2022/06/29 00:06:40;;;;;;;10.87;9.80;;;26.00;99.90;;;;;;6275951;28;20541;-65
2022/06/29 00:09:43;;;;;;;11.37;10.50;;;25.90;99.80;;;;;;6275505;28;20679;-65
2022/06/29 00:12:48;;;;;;;10.53;9.70;;;25.90;99.90;;;;;;6275853;28;20231;-65
2022/06/29 00:15:52;;;;;;;9.30;8.60;;;25.80;99.80;;;;;;6275835;28;20227;-65
2022/06/29 00:18:56;;;;;;;10.57;9.77;;;25.80;99.80;;;;;;6275256;28;20207;-66
2022/06/29 00:21:59;;;;;;;10.77;10.03;;;25.90;99.90;;;;;;6275479;28;20527;-65
2022/06/29 00:25:02;;;;;;;11.63;10.70;;;25.90;99.90;;;;;;6275674;28;20227;-66
2022/06/29 00:28:05;;;;;;;10.97;10.07;;;25.80;99.90;;;;;;6266063;28;20211;-67
2022/06/29 00:31:10;;;;;;;11.10;10.20;;;25.80;99.90;;;;;;6275749;28;20227;-65
2022/06/29 00:34:13;;;;;;;11.90;11.10;;;25.80;99.90;;;;;;6275396;28;20227;-65
2022/06/29 00:37:16;;;;;;;12.50;11.60;;;25.70;99.90;;;;;;6275607;28;20231;-65
2022/06/29 00:40:19;;;;;;;12.37;11.27;;;25.60;99.90;;;;;;6275410;28;20233;-64
2022/06/29 00:43:24;;;;;;;12.77;11.67;;;25.70;99.90;;;;;;6275397;28;20234;-65
2022/06/29 00:46:29;;;;;;;13.13;12.10;;;25.60;99.90;;;;;;6274931;28;20698;-64
2022/06/29 00:49:33;;;;;;;13.87;12.67;;;25.60;99.90;;;;;;6275013;28;20756;-64
2022/06/29 00:52:41;;;;;;;12.80;11.60;;;25.60;99.90;;;;;;6275043;28;20659;-65
2022/06/29 00:55:47;;;;;;;11.60;10.90;;;25.50;99.90;;;;;;6274595;28;20242;-64
2022/06/29 00:58:54;;;;;;;12.87;11.87;;;25.60;99.90;;;;;;6275188;28;20230;-64
2022/06/29 01:01:59;;;;;;;13.97;12.37;;;25.70;99.90;;;;;;6274817;28;20227;-65
2022/06/29 01:05:05;;;;;;;14.00;12.80;;;25.70;99.90;;;;;;6275144;28;20235;-65
2022/06/29 01:08:08;;;;;;;12.77;11.77;;;25.80;99.90;;;;;;6275045;28;20227;-65
2022/06/29 01:11:11;;;;;;;12.80;11.90;;;25.80;99.90;;;;;;6274603;28;20227;-64
2022/06/29 01:14:15;;;;;;;12.63;11.83;;;25.80;99.90;;;;;;6274684;28;20250;-65
2022/06/29 01:17:21;;;;;;;12.63;11.80;;;25.80;99.90;;;;;;6274666;28;20670;-66
2022/06/29 01:20:24;;;;;;;12.47;11.53;;;25.80;99.90;;;;;;6274762;28;20233;-65
2022/06/29 01:23:29;;;;;;;12.80;11.83;;;25.80;99.90;;;;;;6274975;28;20223;-65
2022/06/29 01:26:32;;;;;;;13.87;12.97;;;25.80;99.90;;;;;;6274466;28;20578;-65
2022/06/29 01:29:35;;;;;;;14.13;12.90;;;25.70;99.90;;;;;;6277348;28;20223;-65
2022/06/29 01:32:39;;;;;;;13.90;12.90;;;25.50;99.90;;;;;;6275341;28;20227;-65
2022/06/29 01:35:42;;;;;;;13.90;12.77;;;25.40;99.90;;;;;;6279303;28;20246;-66
2022/06/29 01:38:47;;;;;;;14.10;12.90;;;25.30;99.90;;;;;;6279566;28;20226;-65
2022/06/29 01:41:50;;;;;;;13.57;12.67;;;25.30;99.90;;;;;;6279295;28;20559;-65
2022/06/29 01:44:54;;;;;;;14.40;13.30;;;25.30;99.90;;;;;;6279496;28;20227;-65
2022/06/29 01:47:57;;;;;;;13.70;12.70;;;25.40;99.90;;;;;;6278874;28;20231;-65
2022/06/29 01:51:00;;;;;;;14.10;13.00;;;25.50;99.90;;;;;;6279888;28;20223;-65
2022/06/29 01:54:05;;;;;;;13.07;12.07;;;25.50;99.90;;;;;;6278883;28;20237;-65
2022/06/29 01:57:08;;;;;;;12.67;11.60;;;25.50;99.90;;;;;;6279260;28;20757;-65
2022/06/29 02:00:12;;;;;;;13.50;12.47;;;25.60;99.90;;;;;;6278988;28;20542;-64
2022/06/29 02:03:16;;;;;;;13.37;12.37;;;25.50;99.90;;;;;;6278973;28;20298;-65
2022/06/29 02:06:19;;;;;;;13.40;12.40;;;25.60;99.90;;;;;;6285370;28;20250;-65
2022/06/29 02:09:23;;;;;;;12.07;11.27;;;25.60;99.90;;;;;;6286286;28;20223;-64
2022/06/29 02:12:26;;;;;;;13.10;12.20;;;25.60;99.90;;;;;;6280289;28;20231;-64
2022/06/29 02:15:30;;;;;;;13.73;12.63;;;25.60;99.90;;;;;;6278831;28;20231;-65
2022/06/29 02:18:33;;;;;;;13.60;12.60;;;25.60;99.90;;;;;;6278657;28;20235;-65
2022/06/29 02:21:36;;;;;;;13.97;12.77;;;25.60;99.90;;;;;;6278587;28;20247;-65
2022/06/29 02:24:40;;;;;;;14.07;13.07;;;25.50;99.90;;;;;;6278314;28;20231;-65
2022/06/29 02:27:46;;;;;;;14.27;13.37;;;25.40;99.90;;;;;;6278457;28;20231;-64
2022/06/29 02:37:27;;;;;;;14.60;13.47;;;25.20;99.90;;;;;;6255557;28;20244;-65
2022/06/29 02:40:31;;;;;;;14.20;13.10;;;25.10;99.90;;;;;;6276727;28;20596;-64
2022/06/29 02:43:34;;;;;;;12.63;11.77;;;25.00;99.90;;;;;;6278263;28;20219;-64
2022/06/29 02:46:37;;;;;;;12.90;11.90;;;24.90;99.90;;;;;;6278159;28;20227;-64
2022/06/29 02:49:41;;;;;;;14.63;13.30;;;24.90;99.90;;;;;;6278683;28;20223;-65
2022/06/29 02:52:44;;;;;;;14.03;12.70;;;24.80;99.90;;;;;;6277909;28;20242;-66
2022/06/29 02:55:48;;;;;;;15.03;13.80;;;24.90;99.90;;;;;;6277096;28;20246;-65
2022/06/29 02:58:52;;;;;;;14.33;13.27;;;24.90;99.90;;;;;;6277926;28;20227;-65
2022/06/29 03:01:55;;;;;;;12.50;11.60;;;24.90;99.90;;;;;;6277783;28;20246;-65
2022/06/29 03:04:59;;;;;;;12.90;11.67;;;25.00;99.90;;;;;;6277541;28;20235;-65
2022/06/29 03:08:03;;;;;;;13.37;12.30;;;25.00;99.90;;;;;;6277270;28;20239;-64
2022/06/29 03:11:07;;;;;;;13.37;12.30;;;25.00;99.90;;;;;;6277208;28;20231;-64
2022/06/29 03:14:10;;;;;;;13.40;12.30;;;25.00;99.90;;;;;;6289049;28;20567;-64
2022/06/29 03:17:14;;;;;;;12.37;11.33;;;25.10;99.90;;;;;;6287852;28;20227;-65
2022/06/29 03:20:17;;;;;;;11.57;10.73;;;25.10;99.90;;;;;;6286010;28;20219;-64
2022/06/29 03:23:20;;;;;;;10.27;9.57;;;25.10;99.90;;;;;;6298190;28;20233;-64
2022/06/29 03:26:24;;;;;;;10.07;9.27;;;25.10;99.90;;;;;;6280080;28;20222;-65
2022/06/29 03:29:30;;;;;;;9.50;8.80;;;25.10;99.90;;;;;;6297748;28;20237;-64
2022/06/29 03:32:33;;;;;;;9.43;8.70;;;25.00;99.90;;;;;;6281136;28;20242;-63
2022/06/29 03:35:37;;;;;;;8.73;8.17;;;25.00;99.90;;;;;;6276878;28;20246;-64
2022/06/29 03:38:40;;;;;;;7.87;7.13;;;25.00;99.90;;;;;;6276469;28;20239;-64
2022/06/29 03:41:45;;;;;;;7.70;7.20;;;24.80;99.90;;;;;;6267804;28;20231;-65
2022/06/29 03:44:48;;;;;;;7.97;7.27;;;24.80;99.90;;;;;;6276151;28;20675;-65
2022/06/29 03:47:51;;;;;;;7.50;7.00;;;24.80;99.90;;;;;;6276920;28;20231;-65
2022/06/29 03:50:54;;;;;;;8.30;7.70;;;24.90;99.90;;;;;;6276086;28;20694;-65
2022/06/29 03:53:58;;;;;;;8.47;7.80;;;25.00;99.90;;;;;;6276238;28;20231;-65
2022/06/29 03:57:02;;;;;;;7.57;6.97;;;25.10;99.90;;;;;;6276257;28;20231;-65
2022/06/29 04:00:07;;;;;;;8.63;7.83;;;25.20;99.90;;;;;;6276160;28;20242;-65
2022/06/29 04:03:10;;;;;;;7.07;6.57;;;25.30;99.90;;;;;;6276466;28;20232;-64
2022/06/29 04:06:13;;;;;;;8.40;7.80;;;25.50;99.90;;;;;;6275703;28;20694;-65
2022/06/29 04:09:16;;;;;;;8.33;7.60;;;25.50;99.90;;;;;;6275972;28;20302;-64
2022/06/29 04:12:21;;;;;;;10.37;7.63;;;25.60;99.90;;;;;;6275904;28;20231;-64
2022/06/29 04:15:24;;;;;;;8.27;7.33;;;25.70;99.90;;;;;;6275772;28;20573;-65
2022/06/29 04:18:27;;;;;;;8.20;7.60;;;25.80;99.90;;;;;;6275825;28;20557;-64
2022/06/29 04:21:30;;;;;;;7.83;7.13;;;25.80;99.90;;;;;;6275658;28;20238;-64
2022/06/29 04:24:33;;;;;;;8.60;7.63;;;25.90;99.90;;;;;;6275275;28;20234;-65
2022/06/29 04:27:38;;;;;;;8.60;8.00;;;26.00;99.90;;;;;;6275392;28;20602;-65
2022/06/29 04:30:41;;;;;;;7.77;7.17;;;26.10;99.90;;;;;;6275526;28;20234;-64
2022/06/29 04:33:44;;;;;;;7.80;7.20;;;26.20;99.90;;;;;;6275757;28;20223;-65
2022/06/29 04:36:47;;;;;;;8.00;7.23;;;26.20;99.90;;;;;;6275541;28;20643;-65
2022/06/29 04:39:50;;;;;;;8.73;7.17;;;26.20;99.70;;;;;;6275644;28;20214;-65
2022/06/29 04:42:55;;;;;;;8.90;8.00;;;26.30;99.60;;;;;;6270856;28;20203;-65
2022/06/29 04:49:19;;;;;;;8.03;7.33;;;26.40;99.00;;;;;;6288312;28;20616;-65
2022/06/29 04:52:24;;;;;;;9.13;8.23;;;26.60;99.30;;;;;;6299945;28;20309;-65
2022/06/29 04:55:29;;;;;;;7.23;6.63;;;26.60;98.70;;;;;;6292806;28;20234;-65
2022/06/29 04:58:33;;;;;;;9.37;7.80;;;26.70;98.50;;;;;;6299455;28;20685;-65
2022/06/29 05:01:37;;;;;;;9.50;7.43;;;26.90;98.60;;;;;;6300261;28;20226;-65
2022/06/29 05:04:40;;;;;;;8.87;8.07;;;27.00;98.40;;;;;;6301680;28;20312;-64
2022/06/29 05:07:43;;;;;;;7.93;7.23;;;27.20;98.20;;;;;;6299572;28;20226;-66
2022/06/29 05:10:47;;;;;;;7.97;7.37;;;27.30;98.00;;;;;;6286572;28;20241;-66
2022/06/29 05:13:51;;;;;;;7.87;7.17;;;27.50;97.50;;;;;;6280187;28;20246;-66
2022/06/29 05:16:54;;;;;;;7.97;7.23;;;27.60;97.50;;;;;;6274491;28;20302;-66
2022/06/29 05:19:57;;;;;;;7.13;6.23;;;27.90;97.30;;;;;;6274673;28;20237;-66
2022/06/29 05:23:01;;;;;;;7.80;7.00;;;28.00;96.80;;;;;;6274857;28;20233;-66
2022/06/29 05:26:04;;;;;;;7.90;7.20;;;28.10;96.60;;;;;;6274911;28;20237;-66
2022/06/29 05:29:08;;;;;;;8.87;8.10;;;28.30;96.20;;;;;;6275044;28;20237;-66
2022/06/29 05:32:12;;;;;;;7.87;7.17;;;28.50;95.60;;;;;;6275337;28;20671;-66
2022/06/29 05:35:15;;;;;;;8.03;7.37;;;28.60;95.00;;;;;;6274647;28;20246;-68
2022/06/29 05:38:18;;;;;;;7.07;6.47;;;28.60;94.80;;;;;;6274176;28;20313;-65
2022/06/29 05:41:21;;;;;;;8.33;7.63;;;28.70;94.70;;;;;;6274228;28;20238;-65
2022/06/29 05:44:26;;;;;;;7.70;7.10;;;28.90;94.80;;;;;;6279463;28;20272;-65
2022/06/29 05:47:29;;;;;;;8.37;7.57;;;29.00;94.00;;;;;;6296514;28;20684;-65
2022/06/29 05:50:32;;;;;;;7.40;6.57;;;29.10;93.40;;;;;;6297768;28;20261;-66
2022/06/29 05:53:35;;;;;;;7.03;6.33;;;29.20;93.10;;;;;;6302126;28;20682;-65
2022/06/29 05:56:38;;;;;;;7.97;7.37;;;29.10;92.20;;;;;;6300699;28;20662;-68
2022/06/29 05:59:43;;;;;;;11.50;7.43;;;29.00;92.40;;;;;;6300457;28;20223;-68
2022/06/29 06:02:46;;;;;;;7.10;6.50;;;29.20;92.40;;;;;;6302627;28;20237;-66
2022/06/29 06:05:49;;;;;;;8.03;7.20;;;29.50;91.30;;;;;;6303108;28;20268;-65
2022/06/29 06:08:52;;;;;;;6.40;5.80;;;29.60;90.90;;;;;;6299047;28;20223;-69
2022/06/29 06:11:56;;;;;;;6.70;6.10;;;29.70;91.00;;;;;;6298993;28;20237;-67
2022/06/29 06:15:01;;;;;;;8.37;7.33;;;29.70;90.60;;;;;;6298801;28;20226;-67
2022/06/29 06:18:04;;;;;;;6.53;5.97;;;29.70;90.50;;;;;;6304053;28;20230;-68
2022/06/29 06:21:07;;;;;;;10.50;7.60;;;29.80;90.70;;;;;;6304314;28;20233;-68
2022/06/29 06:24:11;;;;;;;9.07;8.27;;;29.80;90.00;;;;;;6303994;28;20242;-68
2022/06/29 06:27:14;;;;;;;9.53;6.90;;;29.70;90.60;;;;;;6304737;28;20231;-68
2022/06/29 06:30:18;;;;;;;7.63;7.00;;;29.70;90.50;;;;;;6304214;28;20241;-68
2022/06/29 06:33:22;;;;;;;7.53;6.70;;;29.90;90.50;;;;;;6304435;28;20230;-68
2022/06/29 06:36:25;;;;;;;6.95;6.10;;;30.50;89.00;;;;;;6303713;28;20222;-67
2022/06/29 06:39:28;;;;;;;7.05;6.53;;;30.80;86.00;;;;;;6303868;28;20242;-67
2022/06/29 06:42:30;;;;;;;7.75;6.38;;;30.90;84.80;;;;;;6303582;28;20226;-68
2022/06/29 06:45:35;;;;;;;7.72;7.13;;;31.20;84.90;;;;;;6303852;28;20238;-68
2022/06/29 06:48:38;;;;;;;7.50;6.88;;;31.70;82.60;;;;;;6304199;28;20344;-68
2022/06/29 06:51:41;;;;;;;6.70;6.20;;;32.30;81.00;;;;;;6304319;28;20536;-68
2022/06/29 06:54:45;;;;;;;6.75;6.35;;;32.50;78.10;;;;;;6294727;28;20242;-68
2022/06/29 06:57:48;;;;;;;7.10;6.50;;;32.40;77.70;;;;;;6303460;28;20230;-68
2022/06/29 07:00:52;;;;;;;8.25;7.50;;;31.90;77.60;;;;;;6303566;28;20539;-68
2022/06/29 07:03:56;;;;;;;7.00;6.43;;;31.60;79.40;;;;;;6303814;28;20213;-68
2022/06/29 07:06:59;;;;;;;7.03;6.43;;;31.60;79.70;;;;;;6303717;28;20542;-67
2022/06/29 07:10:09;;;;;;;9.25;7.57;;;31.60;80.00;;;;;;6303162;28;20292;-68
2022/06/29 07:13:12;;;;;;;7.45;6.75;;;31.40;79.70;;;;;;6303659;28;20222;-67
2022/06/29 07:16:17;;;;;;;7.60;6.85;;;31.30;80.50;;;;;;6297444;28;20241;-69
2022/06/29 07:19:20;;;;;;;7.90;7.15;;;31.40;81.30;;;;;;6287256;28;20246;-70
2022/06/29 07:22:23;;;;;;;7.05;6.45;;;31.60;80.80;;;;;;6279845;28;20305;-68
2022/06/29 07:25:26;;;;;;;7.03;6.43;;;31.80;80.90;;;;;;6294434;28;20234;-68
2022/06/29 07:28:29;;;;;;;7.68;6.43;;;32.20;77.90;;;;;;6301226;28;20222;-68
2022/06/29 07:31:34;;;;;;;7.60;7.00;;;32.50;76.00;;;;;;6301382;28;20678;-67
2022/06/29 07:34:37;;;;;;;7.30;6.65;;;32.80;75.90;;;;;;6301656;28;20305;-69
2022/06/29 07:37:40;;;;;;;14.00;6.72;;;33.00;75.20;;;;;;6301452;28;20534;-67
2022/06/29 07:40:43;;;;;;;6.57;6.07;;;33.10;73.40;;;;;;6301340;28;20224;-69
2022/06/29 07:43:47;;;;;;;6.82;6.43;;;33.20;72.80;;;;;;6301246;28;20230;-69
2022/06/29 07:46:51;;;;;;;13.15;7.65;;;33.70;71.50;;;;;;6300853;28;20231;-68
2022/06/29 07:49:55;;;;;;;7.85;6.65;;;33.40;71.20;;;;;;6301885;28;20245;-68
2022/06/29 07:52:58;;;;;;;7.03;6.22;;;34.10;69.20;;;;;;6298427;28;20229;-69
2022/06/29 07:56:01;;;;;;;9.95;6.97;;;34.40;68.20;;;;;;6296197;28;20237;-68
2022/06/29 07:59:04;;;;;;;7.45;6.90;;;34.70;66.10;;;;;;6299755;28;20252;-66
2022/06/29 08:02:09;;;;;;;7.63;6.85;;;34.80;66.30;;;;;;6275714;28;20679;-67
2022/06/29 08:05:12;;;;;;;7.53;6.78;;;34.70;65.40;;;;;;6276047;28;20724;-66
2022/06/29 08:08:16;;;;;;;7.00;6.47;;;34.40;66.10;;;;;;6275724;28;20252;-66
2022/06/29 08:11:19;;;;;;;7.47;6.97;;;34.80;66.30;;;;;;6286502;28;20227;-67
2022/06/29 08:14:23;;;;;;;7.38;6.78;;;35.40;63.40;;;;;;6298120;28;20237;-66
2022/06/29 08:17:27;;;;;;;8.50;7.78;;;35.60;62.10;;;;;;6289040;28;20230;-66
2022/06/29 08:20:36;;;;;;;7.85;6.70;;;35.30;62.40;;;;;;6300394;28;20226;-66
2022/06/29 08:23:39;;;;;;;6.30;5.82;;;35.20;62.70;;;;;;6300153;28;20233;-66
2022/06/29 08:26:48;;;;;;;8.45;7.05;;;35.60;61.40;;;;;;6300108;28;20268;-66
2022/06/29 08:30:13;;;;;;;7.78;7.07;;;35.80;60.10;;;;;;6300113;28;20666;-66
2022/06/29 08:33:20;;;;;;;9.93;7.85;;;35.50;60.00;;;;;;6300376;28;20233;-67
2022/06/29 08:36:24;;;;;;;8.07;7.47;;;35.30;60.00;;;;;;6295370;28;20230;-65
2022/06/29 08:39:47;;;;;;;6.97;6.38;;;34.90;61.10;;;;;;6274260;28;20232;-67
2022/06/29 08:42:51;;;;;;;8.10;7.50;;;34.30;62.90;;;;;;6284705;28;20567;-66
2022/06/29 08:45:55;;;;;;;7.63;7.03;;;34.00;64.10;;;;;;6299766;28;20230;-67
2022/06/29 08:49:02;;;;;;;7.63;7.15;;;33.80;64.50;;;;;;6299493;28;20658;-66
2022/06/29 08:52:07;;;;;;;8.18;7.45;;;33.70;65.00;;;;;;6299986;28;20198;-67
2022/06/29 08:55:11;;;;;;;7.60;6.95;;;33.50;65.00;;;;;;6300286;28;20654;-65
2022/06/29 08:58:18;;;;;;;9.35;7.97;;;33.50;65.50;;;;;;6291633;28;20231;-65
2022/06/29 09:01:21;;;;;;;7.35;6.85;;;33.60;66.50;;;;;;6276474;28;20231;-66
2022/06/29 09:04:26;;;;;;;7.47;6.88;;;33.70;64.40;;;;;;6283839;28;20243;-67
2022/06/29 09:07:29;;;;;;;8.68;7.25;;;33.80;64.50;;;;;;6285384;28;20234;-66
2022/06/29 09:10:32;;;;;;;8.05;7.43;;;34.10;63.60;;;;;;6277927;28;20246;-66
2022/06/29 09:13:35;;;;;;;7.32;6.60;;;34.40;62.90;;;;;;6274835;28;20245;-67
2022/06/29 09:16:53;;;;;;;6.80;6.22;;;34.00;62.80;;;;;;6274943;28;20265;-69
2022/06/29 09:19:59;;;;;;;7.78;7.18;;;34.10;62.20;;;;;;6274553;28;20231;-68
2022/06/29 09:23:23;;;;;;;8.48;7.75;;;33.60;63.10;;;;;;6275135;28;20227;-67
2022/06/29 09:26:30;;;;;;;8.20;7.40;;;33.60;63.60;;;;;;6299546;28;20230;-67
2022/06/29 09:29:35;;;;;;;7.95;7.40;;;33.70;63.70;;;;;;6299445;28;20231;-69
2022/06/29 09:32:38;;;;;;;8.50;7.68;;;33.50;64.20;;;;;;6299259;28;20666;-69
2022/06/29 09:35:43;;;;;;;8.70;8.10;;;33.50;64.80;;;;;;6299028;28;20246;-69
2022/06/29 09:38:46;;;;;;;7.78;6.97;;;33.50;66.40;;;;;;6299018;28;20682;-69
2022/06/29 09:41:58;;;;;;;11.10;8.45;;;33.40;65.10;;;;;;6299253;28;20234;-70
2022/06/29 09:45:01;;;;;;;7.70;7.00;;;33.40;63.90;;;;;;6299111;28;20241;-70
2022/06/29 10:03:35;;;;;;;9.48;8.68;;;33.70;63.10;;;;;;6320432;28;20218;-68
2022/06/29 10:06:39;;;;;;;8.48;7.88;;;33.90;62.90;;;;;;6303995;28;20206;-68
2022/06/29 10:09:42;;;;;;;8.10;7.60;;;34.10;62.70;;;;;;6295955;28;20238;-68
2022/06/29 10:16:48;;;;;;;8.45;7.53;;;34.50;62.20;;;;;;6294933;28;20245;-70
2022/06/29 10:20:02;;;;;;;8.75;7.95;;;34.80;60.50;;;;;;6295014;28;20310;-68
2022/06/29 10:23:05;;;;;;;11.20;8.60;;;34.40;60.40;;;;;;6286910;28;20260;-68
2022/06/29 10:26:39;;;;;;;9.52;8.82;;;33.70;62.60;;;;;;6295450;28;20241;-69
2022/06/29 10:29:42;;;;;;;9.10;8.50;;;33.80;63.30;;;;;;6296534;28;20313;-69
2022/06/29 10:32:47;;;;;;;8.98;8.18;;;33.90;62.80;;;;;;6296217;28;20718;-69
2022/06/29 10:35:59;;;;;;;9.75;8.98;;;33.90;62.30;;;;;;6294804;28;20235;-68
2022/06/29 10:39:12;;;;;;;14.38;9.80;;;34.10;62.20;;;;;;6270107;28;20285;-69
2022/06/29 10:45:57;;;;;;;10.27;9.30;;;34.50;61.80;;;;;;6319782;28;20230;-69
2022/06/29 10:49:21;;;;;;;9.23;8.48;;;34.40;62.20;;;;;;6319508;28;20676;-68
2022/06/29 10:52:24;;;;;;;9.13;8.45;;;34.70;61.30;;;;;;6320005;28;20236;-67
2022/06/29 10:55:33;;;;;;;9.85;8.35;;;34.60;61.10;;;;;;6319784;28;20228;-68
2022/06/29 10:58:36;;;;;;;9.75;7.53;;;34.80;61.70;;;;;;6307603;28;20550;-67
2022/06/29 11:01:39;;;;;;;8.73;8.13;;;35.00;61.30;;;;;;6278317;28;20234;-68
2022/06/29 11:04:44;;;;;;;9.32;8.45;;;35.00;60.70;;;;;;6274518;28;20231;-68
2022/06/29 11:17:57;;;;;;;10.25;9.43;;;34.20;62.00;;;;;;6257681;28;20223;-68
2022/06/29 11:21:04;;;;;;;9.70;8.88;;;34.10;62.90;;;;;;6277240;28;20231;-68
2022/06/29 11:24:08;;;;;;;8.82;8.23;;;34.30;62.60;;;;;;6275658;28;20234;-69
2022/06/29 11:27:29;;;;;;;9.75;9.05;;;34.20;62.70;;;;;;6276805;28;20564;-71
2022/06/29 11:30:33;;;;;;;8.77;7.97;;;34.50;63.20;;;;;;6277430;28;20223;-69
2022/06/29 11:33:38;;;;;;;9.57;8.88;;;34.90;63.30;;;;;;6276861;28;20527;-68
2022/06/29 11:36:43;;;;;;;9.70;8.90;;;34.60;61.30;;;;;;6276379;28;20298;-69
2022/06/29 11:39:46;;;;;;;9.02;8.43;;;34.70;62.30;;;;;;6276166;28;20336;-70
2022/06/29 11:43:07;;;;;;;9.75;8.93;;;35.00;62.10;;;;;;6266362;28;20338;-69
2022/06/29 11:46:19;;;;;;;8.95;8.23;;;34.70;61.30;;;;;;6277308;28;20281;-69
2022/06/29 11:49:36;;;;;;;8.93;8.02;;;34.80;60.90;;;;;;6276887;28;20251;-69
2022/06/29 11:52:41;;;;;;;9.32;8.57;;;35.00;59.80;;;;;;6276638;28;20310;-68
2022/06/29 11:55:46;;;;;;;8.70;8.00;;;35.20;60.70;;;;;;6276503;28;20223;-68
2022/06/29 11:58:51;;;;;;;9.32;8.50;;;35.20;60.60;;;;;;6275915;28;20234;-68
2022/06/29 12:01:54;;;;;;;8.02;7.32;;;35.00;59.30;;;;;;6276537;28;20316;-68
2022/06/29 12:05:00;;;;;;;8.70;7.90;;;34.30;58.80;;;;;;6275980;28;20570;-68
2022/06/29 12:08:05;;;;;;;9.85;7.93;;;34.30;59.30;;;;;;6276182;28;20242;-68
2022/06/29 12:11:08;;;;;;;7.88;7.28;;;34.40;58.40;;;;;;6275198;28;20234;-68
2022/06/29 12:14:11;;;;;;;8.25;7.13;;;34.60;57.20;;;;;;6276120;28;20246;-68
2022/06/29 12:17:15;;;;;;;8.25;7.45;;;34.70;57.30;;;;;;6276152;28;20292;-68
2022/06/29 12:20:20;;;;;;;8.55;7.90;;;34.80;56.80;;;;;;6275863;28;20237;-67
2022/06/29 12:23:41;;;;;;;8.45;7.65;;;34.80;56.50;;;;;;6276035;28;20254;-67
2022/06/29 12:26:44;;;;;;;8.25;7.65;;;34.30;57.80;;;;;;6275407;28;20223;-68
2022/06/29 12:29:47;;;;;;;8.93;8.13;;;34.10;58.30;;;;;;6275876;28;20550;-67
2022/06/29 12:32:51;;;;;;;9.63;8.35;;;34.00;58.90;;;;;;6275236;28;20688;-67
2022/06/29 12:35:54;;;;;;;9.02;8.25;;;34.10;58.10;;;;;;6273746;28;20604;-66
2022/06/29 12:38:59;;;;;;;8.20;7.50;;;34.30;57.90;;;;;;6270257;28;20234;-67
2022/06/29 12:42:02;;;;;;;9.85;9.10;;;34.50;57.70;;;;;;6272540;28;20227;-68
2022/06/29 12:45:07;;;;;;;8.75;8.05;;;33.90;59.00;;;;;;6271949;28;20227;-67
2022/06/29 12:48:10;;;;;;;9.27;8.10;;;33.80;59.10;;;;;;6273220;28;20245;-66
2022/06/29 12:51:13;;;;;;;8.73;8.05;;;33.70;59.80;;;;;;6274450;28;20239;-67
2022/06/29 12:54:18;;;;;;;9.80;8.98;;;33.70;59.70;;;;;;6275015;28;20227;-67
2022/06/29 12:57:22;;;;;;;9.77;8.82;;;34.10;59.30;;;;;;6274607;28;20231;-67
2022/06/29 13:00:26;;;;;;;10.30;8.88;;;34.40;58.70;;;;;;6274664;28;20253;-67
2022/06/29 13:03:29;;;;;;;9.85;8.85;;;34.40;56.70;;;;;;6299909;28;20218;-67
2022/06/29 13:06:33;;;;;;;9.43;8.55;;;34.40;57.20;;;;;;6299883;28;20205;-67
2022/06/29 13:09:38;;;;;;;9.60;8.80;;;34.40;57.50;;;;;;6299216;28;20222;-66
2022/06/29 13:12:41;;;;;;;8.65;7.88;;;34.60;57.20;;;;;;6299955;28;20320;-66
2022/06/29 13:15:44;;;;;;;8.90;8.20;;;34.60;57.70;;;;;;6300027;28;20202;-66
2022/06/29 13:18:48;;;;;;;12.15;8.48;;;34.60;57.40;;;;;;6299478;28;20230;-67
2022/06/29 13:21:51;;;;;;;10.20;8.27;;;34.40;56.80;;;;;;6298974;28;20582;-67
2022/06/29 13:24:56;;;;;;;10.77;8.63;;;34.30;57.50;;;;;;6298869;28;20237;-68
2022/06/29 13:27:59;;;;;;;9.63;8.65;;;34.20;57.40;;;;;;6295808;28;20669;-66
2022/06/29 13:31:02;;;;;;;10.40;9.18;;;33.90;57.40;;;;;;6296595;28;20249;-66
2022/06/29 13:34:06;;;;;;;9.88;7.95;;;33.90;57.10;;;;;;6298909;28;20222;-68
2022/06/29 13:37:09;;;;;;;8.55;7.85;;;34.10;56.60;;;;;;6299440;28;20237;-66
2022/06/29 13:40:14;;;;;;;8.82;8.15;;;33.90;56.60;;;;;;6297518;28;20238;-66
2022/06/29 13:43:17;;;;;;;9.48;8.73;;;33.60;57.70;;;;;;6299467;28;20655;-68
2022/06/29 13:46:21;;;;;;;10.23;9.43;;;33.60;58.20;;;;;;6299046;28;20249;-66
2022/06/29 13:49:24;;;;;;;9.80;8.88;;;33.50;58.30;;;;;;6299711;28;20271;-66
2022/06/29 13:52:31;;;;;;;9.73;8.68;;;33.40;58.70;;;;;;6298093;28;20345;-66
2022/06/29 13:55:35;;;;;;;8.75;8.05;;;33.30;59.20;;;;;;6296887;28;20222;-66
2022/06/29 13:58:39;;;;;;;9.70;8.80;;;33.20;58.90;;;;;;6284427;28;20233;-67
2022/06/29 14:01:42;;;;;;;9.02;7.75;;;33.20;59.40;;;;;;6297058;28;20265;-66
2022/06/29 14:04:45;;;;;;;8.82;8.02;;;33.30;59.60;;;;;;6296857;28;20325;-66
2022/06/29 14:07:48;;;;;;;8.90;7.97;;;33.50;58.30;;;;;;6297216;28;20218;-65
2022/06/29 14:11:13;;;;;;;9.18;8.43;;;33.70;58.20;;;;;;6294438;28;20683;-65
2022/06/29 14:14:18;;;;;;;9.32;8.07;;;33.80;57.90;;;;;;6298028;28;20232;-66
2022/06/29 14:17:22;;;;;;;9.32;8.63;;;33.60;58.40;;;;;;6299045;28;20268;-65
2022/06/29 14:20:25;;;;;;;9.75;8.88;;;33.60;57.90;;;;;;6298140;28;20236;-65
2022/06/29 14:23:28;;;;;;;9.88;8.85;;;33.50;58.70;;;;;;6298740;28;20219;-66
2022/06/29 14:26:33;;;;;;;9.15;7.82;;;33.50;58.60;;;;;;6281122;28;20684;-67
2022/06/29 14:29:39;;;;;;;9.52;8.35;;;33.50;58.40;;;;;;6272470;28;20227;-66
2022/06/29 14:32:43;;;;;;;12.15;8.13;;;33.60;57.50;;;;;;6273635;28;20242;-66
2022/06/29 14:35:46;;;;;;;11.02;8.68;;;33.50;57.90;;;;;;6276602;28;20223;-66
2022/06/29 14:38:49;;;;;;;12.90;8.20;;;33.60;57.00;;;;;;6277946;28;20791;-66
2022/06/29 14:41:54;;;;;;;10.38;9.35;;;33.70;56.20;;;;;;6279188;28;20230;-66
2022/06/29 14:44:57;;;;;;;9.70;8.10;;;33.70;56.00;;;;;;6279303;28;20231;-66
2022/06/29 14:48:00;;;;;;;11.20;8.95;;;33.80;56.10;;;;;;6278191;28;20565;-66
2022/06/29 14:51:03;;;;;;;10.77;9.05;;;33.80;56.40;;;;;;6277979;28;20249;-66
2022/06/29 14:54:07;;;;;;;12.00;8.32;;;34.00;56.80;;;;;;6278694;28;20246;-66
2022/06/29 14:57:11;;;;;;;9.90;8.73;;;34.10;56.50;;;;;;6277473;28;20230;-66
2022/06/29 15:00:15;;;;;;;15.27;8.55;;;33.90;56.90;;;;;;6270486;28;20321;-67
2022/06/29 15:03:19;;;;;;;11.07;8.27;;;33.70;55.80;;;;;;6260276;28;20235;-67
2022/06/29 15:06:28;;;;;;;13.15;8.23;;;33.60;56.00;;;;;;6277633;28;20548;-66
2022/06/29 15:09:33;;;;;;;9.60;8.63;;;33.60;55.60;;;;;;6260181;28;20649;-66
2022/06/29 15:12:39;;;;;;;12.57;8.65;;;33.50;55.60;;;;;;6254575;28;20218;-67
2022/06/29 15:15:46;;;;;;;15.20;9.27;;;33.50;56.40;;;;;;6278001;28;20635;-66
2022/06/29 15:18:49;;;;;;;13.88;8.48;;;33.40;56.00;;;;;;6277568;28;20251;-67
2022/06/29 15:21:52;;;;;;;12.98;8.35;;;33.40;56.80;;;;;;6278016;28;20250;-67
2022/06/29 15:24:55;;;;;;;11.45;8.23;;;33.40;57.20;;;;;;6282211;28;20678;-66
2022/06/29 15:28:00;;;;;;;10.75;8.80;;;33.70;55.20;;;;;;6294018;28;20215;-66
2022/06/29 15:31:04;;;;;;;10.93;8.32;;;33.60;55.10;;;;;;6274741;28;20234;-67
2022/06/29 15:40:49;;;;;;;10.13;9.00;;;33.80;55.20;;;;;;6266140;28;20233;-67
2022/06/29 15:43:53;;;;;;;14.90;8.68;;;33.90;54.90;;;;;;6263403;28;20342;-67
2022/06/29 15:46:57;;;;;;;11.48;9.68;;;33.70;55.10;;;;;;6256205;28;20219;-67
2022/06/29 15:50:00;;;;;;;14.73;9.52;;;33.40;56.10;;;;;;6275906;28;20660;-67
2022/06/29 15:56:24;;;;;;;11.05;8.90;;;33.50;56.10;;;;;;6279112;28;20242;-66
2022/06/29 15:59:28;;;;;;;9.77;7.78;;;33.50;56.10;;;;;;6304336;28;20235;-66
2022/06/29 16:02:32;;;;;;;13.35;8.30;;;33.60;55.60;;;;;;6301790;28;20241;-66
2022/06/29 16:05:36;;;;;;;10.88;8.93;;;33.50;54.30;;;;;;6302538;28;20675;-67
2022/06/29 16:08:39;;;;;;;9.50;7.47;;;33.30;56.00;;;;;;6301072;28;20245;-67
2022/06/29 16:15:05;;;;;;;9.20;8.10;;;33.30;56.40;;;;;;6274456;28;20227;-67
2022/06/29 16:18:08;;;;;;;9.43;7.90;;;33.30;56.00;;;;;;6274498;28;20238;-65
2022/06/29 16:21:12;;;;;;;10.23;8.25;;;33.40;56.40;;;;;;6274603;28;20254;-67
2022/06/29 16:24:15;;;;;;;8.82;7.90;;;33.50;56.60;;;;;;6275922;28;20231;-67
2022/06/29 16:27:19;;;;;;;11.30;8.48;;;33.40;56.60;;;;;;6275427;28;20234;-66
2022/06/29 16:30:23;;;;;;;12.65;8.88;;;33.20;57.20;;;;;;6275049;28;20309;-67
2022/06/29 16:33:26;;;;;;;9.45;8.23;;;33.20;58.00;;;;;;6275211;28;20239;-67
2022/06/29 16:36:30;;;;;;;11.98;8.45;;;33.30;57.90;;;;;;6299921;28;20517;-67
2022/06/29 16:39:33;;;;;;;9.30;7.70;;;33.10;57.90;;;;;;6288580;28;20649;-66
2022/06/29 16:42:36;;;;;;;12.75;8.07;;;33.00;58.30;;;;;;6301193;28;20289;-67
2022/06/29 16:45:41;;;;;;;10.07;7.82;;;33.00;58.50;;;;;;6300907;28;20218;-66
2022/06/29 16:48:44;;;;;;;9.65;8.65;;;33.00;58.50;;;;;;6306107;28;20564;-67